首页
METAR-TAF:

METAR-TAF

机场 :

布兰登, 曼尼托巴, 加拿大

纬度: 49-55N, 经度: 099-57W, 海拔: 409米

当前天气观测

该预报发布于19分钟前的04:00 UTC
风速6节,风向
温度 8°C
湿度 81%
气压 1019 hPa
能見度: 24.1公里
散云层高于7000英尺

METAR: CYBR 280400Z 35006KT 15SM SCT070 08/05 A3008 RMK AC4 SLP198

时间: 23:19 (04:19 UTC)

预报

该预报发布于4小时和39分钟前的23:40 UTC
预报有效从28日的 00点(UTC)到 28日的 12点(UTC)
风速3节,风向多变
能見度: 10公里
散云层高于4000英尺
多云层高于8000英尺
短暂存在
从 28日的 00点(UTC)到 28日的 03点(UTC)
能見度: 10公里
多云层高于4000英尺
多云层高于6000英尺
小阵雨
从 28日的 0300点(UTC)
风速9节,风向北转东北
能見度: 10公里
少量云层高于1500英尺
多云层高于3000英尺
短暂存在
从 28日的 03点(UTC)到 28日的 12点(UTC)
散云层高于800英尺
多云层高于1500英尺
几率 30%
从 28日的 09点(UTC)到 28日的 12点(UTC)
能見度: 1.2公里
多云层高于800英尺
轻雾

TAF: CYBR 272340Z 2800/2812 VRB03KT P6SM SCT040 BKN080 TEMPO 2800/2803 P6SM -SHRA BKN040 BKN060 FM280300 03009KT P6SM FEW015 BKN030 TEMPO 2803/2812 SCT008 BKN015 PROB30 2809/2812 3/4SM BR BKN008 RMK NXT FCST BY 280600Z

超过4000个机场的气象观测和天气预报(METAR&TAF报告)。

可查询的气象台以黄色和红色小点在地图上表示。

将鼠标移到小点上方,可查看气象台名称。

然后点击查看天气观测和预报。

如需切换地图:点击带黑十字的绿色按钮放大地图;点击带横线的绿色按钮缩小地图;或者点击绿色箭头查看邻近地区的地图。


METAR-TAF: